createdAt,value
2023-01-23T14:32:47.986Z,31.00
2023-01-23T14:35:40.212Z,35.60
2023-01-23T14:38:29.079Z,31.30
2023-01-23T14:41:08.894Z,29.90
2023-01-23T14:43:47.050Z,32.60
2023-01-23T14:46:36.336Z,33.10
2023-01-23T14:49:19.884Z,31.50
2023-01-23T14:52:05.198Z,33.30
2023-01-23T14:54:53.766Z,32.00
2023-01-23T14:57:32.585Z,31.20
2023-01-23T15:00:20.443Z,35.10
2023-01-23T15:02:57.114Z,31.60
2023-01-23T15:05:34.185Z,36.20
2023-01-23T15:08:26.917Z,34.50
2023-01-23T15:11:06.655Z,39.20
2023-01-23T15:13:51.313Z,32.00
2023-01-23T15:16:34.139Z,35.60
2023-01-23T15:19:23.089Z,38.60
2023-01-23T15:22:22.154Z,29.50
2023-01-23T15:25:18.614Z,33.70
2023-01-23T15:27:55.151Z,32.70
2023-01-23T15:30:48.703Z,32.60
2023-01-23T15:33:37.858Z,32.70
2023-01-23T15:36:31.869Z,37.30
2023-01-23T15:39:20.807Z,30.00
2023-01-23T15:42:02.270Z,30.00
2023-01-23T15:44:38.894Z,34.70
2023-01-23T15:47:15.514Z,32.50
2023-01-23T15:49:52.375Z,43.70
2023-01-23T15:52:31.515Z,38.50
2023-01-23T15:55:14.515Z,30.60
2023-01-23T15:57:53.165Z,34.10
2023-01-23T16:00:32.708Z,29.90
2023-01-23T16:03:09.179Z,35.70
2023-01-23T16:05:46.056Z,36.60
2023-01-23T16:08:25.545Z,33.60
2023-01-23T16:11:01.846Z,36.20
2023-01-23T16:13:38.067Z,35.90
2023-01-23T16:16:20.671Z,33.30
2023-01-23T16:18:57.002Z,34.40
2023-01-23T16:21:35.664Z,33.40
2023-01-23T16:24:25.752Z,37.70
2023-01-23T16:27:02.763Z,34.80
2023-01-23T16:29:39.367Z,35.30
2023-01-23T16:32:16.181Z,40.10
2023-01-23T16:34:52.680Z,36.70
2023-01-23T16:37:30.381Z,34.80
2023-01-23T16:40:08.203Z,35.50
2023-01-23T16:42:46.031Z,40.20
2023-01-23T16:45:29.327Z,37.10
2023-01-23T16:48:07.492Z,35.90
2023-01-23T16:50:51.140Z,37.80
2023-01-23T16:53:32.864Z,46.70
2023-01-23T16:58:45.968Z,38.20
2023-01-23T17:01:26.263Z,39.30
2023-01-23T17:04:05.595Z,42.10
2023-01-23T17:06:42.026Z,48.50
2023-01-23T17:09:19.622Z,43.00
2023-01-23T17:11:58.868Z,35.20
2023-01-23T17:14:37.088Z,38.70
2023-01-23T17:17:26.641Z,43.40
2023-01-23T17:20:05.543Z,44.40
2023-01-23T17:22:45.188Z,39.50
2023-01-23T17:25:26.145Z,41.20
2023-01-23T17:28:12.778Z,42.90
2023-01-23T17:30:53.232Z,40.40
2023-01-23T17:33:33.793Z,37.40
2023-01-23T17:36:12.399Z,35.20
2023-01-23T17:38:48.867Z,38.30
2023-01-23T17:41:25.541Z,47.00
2023-01-23T17:44:02.010Z,46.90
2023-01-23T17:46:41.420Z,52.10
2023-01-23T17:49:32.555Z,42.00
2023-01-23T17:52:12.383Z,44.60
2023-01-23T17:54:48.841Z,44.80
2023-01-23T17:57:28.423Z,47.60
2023-01-23T18:00:05.828Z,42.70
2023-01-23T18:02:49.724Z,51.10
2023-01-23T18:05:27.221Z,40.90
2023-01-23T18:08:03.788Z,43.90
2023-01-23T18:10:41.197Z,52.60
2023-01-23T18:13:33.413Z,49.30
2023-01-23T18:16:21.224Z,42.10
2023-01-23T18:19:07.429Z,48.20
2023-01-23T18:21:46.132Z,47.50
2023-01-23T18:24:30.676Z,48.90
2023-01-23T18:27:22.543Z,44.10
2023-01-23T18:30:29.988Z,47.40
2023-01-23T18:33:30.510Z,52.90
2023-01-23T18:36:50.209Z,44.30
2023-01-23T18:40:02.208Z,45.50
2023-01-23T18:42:55.693Z,59.20
2023-01-23T18:45:34.363Z,43.20
2023-01-23T18:48:25.129Z,49.90
2023-01-23T18:51:32.987Z,49.20
2023-01-23T18:54:30.598Z,46.40
2023-01-23T18:57:40.990Z,53.80
2023-01-23T19:00:29.436Z,47.80
2023-01-23T19:03:16.981Z,52.40
2023-01-23T19:05:55.956Z,51.30
2023-01-23T19:08:35.420Z,80.60
2023-01-23T19:11:33.833Z,59.60
2023-01-23T19:14:31.333Z,52.60
2023-01-23T19:17:23.592Z,56.60
2023-01-23T19:20:22.566Z,50.30
2023-01-23T19:23:27.721Z,49.50
2023-01-23T19:26:06.236Z,61.70
2023-01-23T19:28:44.745Z,48.50
2023-01-23T19:31:28.623Z,55.10
2023-01-23T19:34:06.500Z,65.80
2023-01-23T19:36:43.098Z,58.20
2023-01-23T19:39:19.768Z,54.70
2023-01-23T19:41:56.442Z,59.40
2023-01-23T19:44:33.773Z,61.50
2023-01-23T19:47:10.356Z,57.50
2023-01-23T19:49:46.874Z,56.20
2023-01-23T19:52:24.133Z,57.40
2023-01-23T19:55:00.730Z,63.80
2023-01-23T19:57:37.080Z,65.40
2023-01-23T20:00:20.335Z,63.30
2023-01-23T20:02:58.011Z,56.80
2023-01-23T20:05:34.499Z,58.90
2023-01-23T20:08:11.579Z,70.90
2023-01-23T20:10:47.871Z,53.50
2023-01-23T20:13:24.465Z,63.80
2023-01-23T20:16:07.595Z,68.20
2023-01-23T20:18:46.376Z,58.80
2023-01-23T20:21:26.153Z,53.90
2023-01-23T20:24:02.929Z,53.60
2023-01-23T20:26:40.976Z,51.60
2023-01-23T20:29:18.572Z,56.30
2023-01-23T20:31:56.189Z,60.10
2023-01-23T20:34:34.144Z,51.00
2023-01-23T20:37:10.625Z,85.30
2023-01-23T20:39:47.222Z,51.30
2023-01-23T20:42:24.246Z,64.10
2023-01-23T20:45:00.821Z,60.20
2023-01-23T20:47:39.386Z,47.90
2023-01-23T20:50:17.779Z,53.90
2023-01-23T20:53:13.074Z,58.10
2023-01-23T20:55:55.630Z,58.50
2023-01-23T20:58:51.287Z,53.30
2023-01-23T21:01:30.821Z,65.80
2023-01-23T21:04:07.947Z,65.40
2023-01-23T21:06:44.581Z,63.60
2023-01-23T21:09:23.237Z,59.00
2023-01-23T21:12:00.513Z,61.10
2023-01-23T21:14:37.268Z,52.20
2023-01-23T21:17:14.454Z,63.10
2023-01-23T21:19:51.232Z,60.30
2023-01-23T21:22:27.571Z,56.50
2023-01-23T21:25:03.930Z,55.00
2023-01-23T21:27:40.731Z,57.00
2023-01-23T21:30:19.634Z,51.60
2023-01-23T21:32:55.919Z,46.90
2023-01-23T21:35:32.548Z,54.20
2023-01-23T21:38:09.061Z,47.00
2023-01-23T21:40:45.455Z,43.70
2023-01-23T21:43:21.733Z,49.20
2023-01-23T21:45:58.494Z,64.20
2023-01-23T21:48:37.220Z,53.30
2023-01-23T21:51:17.053Z,48.10
2023-01-23T21:53:55.248Z,45.60
2023-01-23T21:56:31.710Z,47.20
2023-01-23T21:59:07.968Z,48.40
2023-01-23T22:01:45.865Z,43.40
2023-01-23T22:04:24.054Z,46.90
2023-01-23T22:07:01.243Z,42.70
2023-01-23T22:09:37.589Z,38.90
2023-01-23T22:12:15.667Z,49.10
2023-01-23T22:14:51.999Z,50.70
2023-01-23T22:17:28.472Z,42.20
2023-01-23T22:20:06.472Z,45.70
2023-01-23T22:22:42.843Z,48.50
2023-01-23T22:25:19.761Z,52.30
2023-01-23T22:27:56.387Z,37.50
2023-01-23T22:30:32.757Z,44.90
2023-01-23T22:33:09.224Z,41.80
2023-01-23T22:35:46.622Z,47.50
2023-01-23T22:38:22.977Z,45.10
2023-01-23T22:41:05.959Z,39.80
2023-01-23T22:43:42.359Z,45.50
2023-01-23T22:46:20.534Z,43.30
2023-01-23T22:48:56.938Z,44.10
2023-01-23T22:51:34.124Z,42.70
2023-01-23T22:54:10.704Z,42.90
2023-01-23T22:56:47.052Z,46.60
2023-01-23T22:59:23.626Z,47.10
2023-01-23T23:02:00.180Z,39.20
2023-01-23T23:04:36.770Z,39.30
2023-01-23T23:07:13.567Z,45.30
2023-01-23T23:09:50.023Z,45.60
2023-01-23T23:12:27.632Z,42.40
2023-01-23T23:15:03.995Z,45.50
2023-01-23T23:17:41.457Z,38.60
2023-01-23T23:20:19.740Z,37.40
2023-01-23T23:22:56.016Z,36.50
2023-01-23T23:25:33.415Z,39.00
2023-01-23T23:28:10.201Z,44.00
2023-01-23T23:30:46.580Z,41.40
2023-01-23T23:33:24.294Z,42.50
2023-01-23T23:36:00.835Z,38.40
2023-01-23T23:38:37.510Z,39.90
2023-01-23T23:41:17.498Z,44.40
2023-01-23T23:43:53.829Z,37.80
2023-01-23T23:46:30.399Z,41.60
2023-01-23T23:49:07.305Z,40.50
2023-01-23T23:51:43.847Z,31.90
2023-01-23T23:54:20.452Z,41.00
2023-01-23T23:56:56.880Z,42.60
2023-01-23T23:59:33.361Z,42.50
